Ashland, Montana
Current Conditions -  °F | °C
As of 3:53 PM on Thursday 27 Nov 2014 (Local Time) from KMLS Reporting Station
Clear Clear  
Wind Chill: 36°   Ceiling: Unl
Heat Index: 41°   Visibility: 10mi
Dew Point: 33°   Wind: 7mph
Humidity: 73%   Direction: 180°S
Pressure: 29.79"   Gusts: NA
Location:  45.62°N, 106.31°W
Report Text: KMLS 272253Z AUTO 18006KT 10SM CLR 05/01 A2979 RMK AO2 SLP110 T00500006
Loading
Personal Weather Stations






























Interactive Weather Map New forecast layout! Learn more

10-Day Weather Forecast

Advertisements
Track Severe Weather on mobile